Terminal Aerodrome Forecast
Issued by NWS Central Illinois

Home | Current Version | Previous Version | Text Only | Print | Product List | Glossary On
Versions: 1 2 3 4 5 6 7 8 9 10 11 12 13 14 15 16 17 18 19 20 21 22 23 24 25 26 27 28 29
781
FTUS43 KILX 201725
TAFPIA
TAF
KPIA 201725Z 2018/2118 15013G21KT P6SM BKN130
     FM210000 19010KT 6SM -SHRA OVC070
     FM210600 21007KT 3SM -SHRA BR OVC015
     FM210800 22005KT 3SM BR VCSH OVC015
     FM211200 28004KT 3SM BR BKN008
     FM211600 29005KT 4SM BR SCT008=

USA.gov is the U.S. government's official web portal to all federal, state and local government web resources and services.